sensor_id;sensor_type;location;lat;lon;timestamp;P1;durP1;ratioP1;P2;durP2;ratioP2
32613;SDS011;19031;51.400;6.770;2023-02-03T00:01:27;16.95;;;6.50;;
32613;SDS011;19031;51.400;6.770;2023-02-03T00:03:53;12.88;;;5.80;;
32613;SDS011;19031;51.400;6.770;2023-02-03T00:06:18;13.25;;;6.07;;
32613;SDS011;19031;51.400;6.770;2023-02-03T00:08:44;13.52;;;5.85;;
32613;SDS011;19031;51.400;6.770;2023-02-03T00:11:10;9.50;;;5.82;;
32613;SDS011;19031;51.400;6.770;2023-02-03T00:13:36;9.55;;;5.60;;
32613;SDS011;19031;51.400;6.770;2023-02-03T00:16:02;11.48;;;6.57;;
32613;SDS011;19031;51.400;6.770;2023-02-03T00:18:30;16.55;;;6.65;;
32613;SDS011;19031;51.400;6.770;2023-02-03T00:20:56;10.68;;;6.35;;
32613;SDS011;19031;51.400;6.770;2023-02-03T00:23:22;10.60;;;6.55;;
32613;SDS011;19031;51.400;6.770;2023-02-03T00:25:48;10.80;;;6.57;;
32613;SDS011;19031;51.400;6.770;2023-02-03T00:28:13;13.95;;;6.55;;
32613;SDS011;19031;51.400;6.770;2023-02-03T00:30:39;12.73;;;5.85;;
32613;SDS011;19031;51.400;6.770;2023-02-03T00:33:05;12.55;;;6.15;;
32613;SDS011;19031;51.400;6.770;2023-02-03T00:35:30;12.15;;;5.50;;
32613;SDS011;19031;51.400;6.770;2023-02-03T00:37:56;11.50;;;6.75;;
32613;SDS011;19031;51.400;6.770;2023-02-03T00:40:23;14.13;;;5.72;;
32613;SDS011;19031;51.400;6.770;2023-02-03T00:42:50;16.05;;;7.35;;
32613;SDS011;19031;51.400;6.770;2023-02-03T00:45:16;12.85;;;5.88;;
32613;SDS011;19031;51.400;6.770;2023-02-03T00:47:41;16.58;;;5.60;;
32613;SDS011;19031;51.400;6.770;2023-02-03T00:50:07;16.67;;;6.15;;
32613;SDS011;19031;51.400;6.770;2023-02-03T00:52:33;17.70;;;6.55;;
32613;SDS011;19031;51.400;6.770;2023-02-03T00:55:00;9.65;;;5.00;;
32613;SDS011;19031;51.400;6.770;2023-02-03T00:57:25;11.68;;;6.72;;
32613;SDS011;19031;51.400;6.770;2023-02-03T00:59:51;13.18;;;6.32;;
32613;SDS011;19031;51.400;6.770;2023-02-03T01:02:16;16.60;;;6.50;;
32613;SDS011;19031;51.400;6.770;2023-02-03T01:04:42;13.95;;;5.60;;
32613;SDS011;19031;51.400;6.770;2023-02-03T01:07:08;10.98;;;6.00;;
32613;SDS011;19031;51.400;6.770;2023-02-03T01:09:34;10.93;;;5.95;;
32613;SDS011;19031;51.400;6.770;2023-02-03T01:12:01;12.30;;;6.15;;
32613;SDS011;19031;51.400;6.770;2023-02-03T01:14:27;10.63;;;6.38;;
32613;SDS011;19031;51.400;6.770;2023-02-03T01:16:53;14.30;;;5.95;;
32613;SDS011;19031;51.400;6.770;2023-02-03T01:19:18;11.70;;;5.45;;
32613;SDS011;19031;51.400;6.770;2023-02-03T01:21:44;13.30;;;5.90;;
32613;SDS011;19031;51.400;6.770;2023-02-03T01:24:09;9.32;;;4.78;;
32613;SDS011;19031;51.400;6.770;2023-02-03T01:26:35;13.90;;;5.70;;
32613;SDS011;19031;51.400;6.770;2023-02-03T01:29:01;11.65;;;5.70;;
32613;SDS011;19031;51.400;6.770;2023-02-03T01:31:29;13.43;;;6.53;;
32613;SDS011;19031;51.400;6.770;2023-02-03T01:33:59;14.43;;;5.85;;
32613;SDS011;19031;51.400;6.770;2023-02-03T01:36:25;13.07;;;4.82;;
32613;SDS011;19031;51.400;6.770;2023-02-03T01:38:52;8.32;;;4.53;;
32613;SDS011;19031;51.400;6.770;2023-02-03T01:41:20;11.63;;;5.43;;
32613;SDS011;19031;51.400;6.770;2023-02-03T01:43:50;10.63;;;5.07;;
32613;SDS011;19031;51.400;6.770;2023-02-03T01:46:37;9.52;;;6.05;;
32613;SDS011;19031;51.400;6.770;2023-02-03T01:51:37;9.75;;;5.47;;
32613;SDS011;19031;51.400;6.770;2023-02-03T01:54:11;13.27;;;5.43;;
32613;SDS011;19031;51.400;6.770;2023-02-03T01:56:39;11.75;;;4.95;;
32613;SDS011;19031;51.400;6.770;2023-02-03T01:59:09;10.77;;;4.78;;
32613;SDS011;19031;51.400;6.770;2023-02-03T02:01:36;9.65;;;4.80;;
32613;SDS011;19031;51.400;6.770;2023-02-03T02:04:02;10.45;;;4.75;;
32613;SDS011;19031;51.400;6.770;2023-02-03T02:06:29;7.68;;;4.85;;
32613;SDS011;19031;51.400;6.770;2023-02-03T02:08:55;9.90;;;4.75;;
32613;SDS011;19031;51.400;6.770;2023-02-03T02:11:24;9.82;;;4.55;;
32613;SDS011;19031;51.400;6.770;2023-02-03T02:13:51;6.82;;;4.28;;
32613;SDS011;19031;51.400;6.770;2023-02-03T02:16:35;10.60;;;4.47;;
32613;SDS011;19031;51.400;6.770;2023-02-03T02:32:46;8.57;;;3.80;;
32613;SDS011;19031;51.400;6.770;2023-02-03T02:38:23;8.93;;;4.32;;
32613;SDS011;19031;51.400;6.770;2023-02-03T02:41:55;8.75;;;3.60;;
32613;SDS011;19031;51.400;6.770;2023-02-03T02:46:37;11.98;;;3.33;;
32613;SDS011;19031;51.400;6.770;2023-02-03T02:51:48;6.80;;;3.60;;
32613;SDS011;19031;51.400;6.770;2023-02-03T02:54:17;6.95;;;3.35;;
32613;SDS011;19031;51.400;6.770;2023-02-03T02:56:47;11.20;;;3.75;;
32613;SDS011;19031;51.400;6.770;2023-02-03T02:59:16;7.05;;;3.35;;
32613;SDS011;19031;51.400;6.770;2023-02-03T03:01:41;7.45;;;2.75;;
32613;SDS011;19031;51.400;6.770;2023-02-03T03:04:07;10.02;;;3.53;;
32613;SDS011;19031;51.400;6.770;2023-02-03T03:11:42;7.63;;;3.22;;
32613;SDS011;19031;51.400;6.770;2023-02-03T03:14:12;10.88;;;3.75;;
32613;SDS011;19031;51.400;6.770;2023-02-03T03:16:43;7.57;;;3.78;;
32613;SDS011;19031;51.400;6.770;2023-02-03T03:19:14;12.40;;;3.22;;
32613;SDS011;19031;51.400;6.770;2023-02-03T03:21:46;12.50;;;4.35;;
32613;SDS011;19031;51.400;6.770;2023-02-03T03:24:17;11.95;;;3.47;;
32613;SDS011;19031;51.400;6.770;2023-02-03T03:26:52;5.93;;;2.80;;
32613;SDS011;19031;51.400;6.770;2023-02-03T03:29:30;6.20;;;2.92;;
32613;SDS011;19031;51.400;6.770;2023-02-03T03:31:59;3.35;;;2.45;;
32613;SDS011;19031;51.400;6.770;2023-02-03T03:34:26;9.13;;;4.03;;
32613;SDS011;19031;51.400;6.770;2023-02-03T03:39:44;6.38;;;2.97;;
32613;SDS011;19031;51.400;6.770;2023-02-03T03:42:57;10.65;;;3.83;;
32613;SDS011;19031;51.400;6.770;2023-02-03T03:47:33;8.75;;;3.03;;
32613;SDS011;19031;51.400;6.770;2023-02-03T03:50:00;13.55;;;3.30;;
32613;SDS011;19031;51.400;6.770;2023-02-03T03:52:28;4.15;;;2.92;;
32613;SDS011;19031;51.400;6.770;2023-02-03T03:54:56;9.05;;;3.05;;
32613;SDS011;19031;51.400;6.770;2023-02-03T03:57:25;7.38;;;2.83;;
32613;SDS011;19031;51.400;6.770;2023-02-03T03:59:56;8.13;;;3.28;;
32613;SDS011;19031;51.400;6.770;2023-02-03T04:02:24;11.48;;;3.03;;
32613;SDS011;19031;51.400;6.770;2023-02-03T04:04:51;4.45;;;2.65;;
32613;SDS011;19031;51.400;6.770;2023-02-03T04:07:18;9.68;;;3.50;;
32613;SDS011;19031;51.400;6.770;2023-02-03T04:09:44;6.78;;;2.67;;
32613;SDS011;19031;51.400;6.770;2023-02-03T04:12:22;11.75;;;3.53;;
32613;SDS011;19031;51.400;6.770;2023-02-03T04:14:47;6.63;;;2.80;;
32613;SDS011;19031;51.400;6.770;2023-02-03T04:17:13;7.53;;;2.78;;
32613;SDS011;19031;51.400;6.770;2023-02-03T04:19:39;3.75;;;2.22;;
32613;SDS011;19031;51.400;6.770;2023-02-03T04:22:04;3.72;;;2.38;;
32613;SDS011;19031;51.400;6.770;2023-02-03T04:24:30;7.97;;;2.67;;
32613;SDS011;19031;51.400;6.770;2023-02-03T04:26:56;4.63;;;2.30;;
32613;SDS011;19031;51.400;6.770;2023-02-03T04:29:21;8.38;;;2.63;;
32613;SDS011;19031;51.400;6.770;2023-02-03T04:31:47;7.03;;;2.47;;
32613;SDS011;19031;51.400;6.770;2023-02-03T04:34:12;8.98;;;2.63;;
32613;SDS011;19031;51.400;6.770;2023-02-03T04:36:38;6.63;;;2.35;;
32613;SDS011;19031;51.400;6.770;2023-02-03T04:39:03;7.72;;;2.55;;
32613;SDS011;19031;51.400;6.770;2023-02-03T04:41:29;4.70;;;2.38;;
32613;SDS011;19031;51.400;6.770;2023-02-03T04:43:55;6.20;;;2.40;;
32613;SDS011;19031;51.400;6.770;2023-02-03T04:46:20;6.85;;;2.50;;
32613;SDS011;19031;51.400;6.770;2023-02-03T04:48:46;4.63;;;2.30;;
32613;SDS011;19031;51.400;6.770;2023-02-03T04:51:12;9.65;;;2.45;;
32613;SDS011;19031;51.400;6.770;2023-02-03T04:53:37;9.20;;;2.33;;
32613;SDS011;19031;51.400;6.770;2023-02-03T04:56:03;5.72;;;1.90;;
32613;SDS011;19031;51.400;6.770;2023-02-03T04:58:29;3.92;;;2.05;;
32613;SDS011;19031;51.400;6.770;2023-02-03T05:00:54;7.07;;;2.00;;
32613;SDS011;19031;51.400;6.770;2023-02-03T05:03:20;4.15;;;1.80;;
32613;SDS011;19031;51.400;6.770;2023-02-03T05:05:46;3.65;;;2.03;;
32613;SDS011;19031;51.400;6.770;2023-02-03T05:08:13;9.45;;;2.45;;
32613;SDS011;19031;51.400;6.770;2023-02-03T05:10:38;8.05;;;2.42;;
32613;SDS011;19031;51.400;6.770;2023-02-03T05:13:04;9.30;;;2.22;;
32613;SDS011;19031;51.400;6.770;2023-02-03T05:15:29;7.50;;;2.58;;
32613;SDS011;19031;51.400;6.770;2023-02-03T05:17:55;6.18;;;2.00;;
32613;SDS011;19031;51.400;6.770;2023-02-03T05:20:20;5.13;;;2.10;;
32613;SDS011;19031;51.400;6.770;2023-02-03T05:22:46;6.28;;;2.22;;
32613;SDS011;19031;51.400;6.770;2023-02-03T05:25:12;13.23;;;2.30;;
32613;SDS011;19031;51.400;6.770;2023-02-03T05:27:38;6.15;;;1.92;;
32613;SDS011;19031;51.400;6.770;2023-02-03T05:30:06;3.78;;;2.00;;
32613;SDS011;19031;51.400;6.770;2023-02-03T05:32:32;3.25;;;2.05;;
32613;SDS011;19031;51.400;6.770;2023-02-03T05:34:58;11.00;;;1.75;;
32613;SDS011;19031;51.400;6.770;2023-02-03T05:37:24;7.90;;;2.13;;
32613;SDS011;19031;51.400;6.770;2023-02-03T05:39:49;6.95;;;1.88;;
32613;SDS011;19031;51.400;6.770;2023-02-03T05:42:15;3.53;;;1.52;;
32613;SDS011;19031;51.400;6.770;2023-02-03T05:44:40;4.50;;;1.27;;
32613;SDS011;19031;51.400;6.770;2023-02-03T05:47:06;4.07;;;1.63;;
32613;SDS011;19031;51.400;6.770;2023-02-03T05:49:32;6.10;;;1.30;;
32613;SDS011;19031;51.400;6.770;2023-02-03T05:51:57;3.25;;;1.58;;
32613;SDS011;19031;51.400;6.770;2023-02-03T05:54:23;4.13;;;1.52;;
32613;SDS011;19031;51.400;6.770;2023-02-03T05:56:48;14.07;;;1.80;;
32613;SDS011;19031;51.400;6.770;2023-02-03T05:59:14;3.22;;;1.33;;
32613;SDS011;19031;51.400;6.770;2023-02-03T06:01:40;1.95;;;1.15;;
32613;SDS011;19031;51.400;6.770;2023-02-03T06:04:06;4.88;;;1.02;;
32613;SDS011;19031;51.400;6.770;2023-02-03T06:06:31;9.63;;;1.33;;
32613;SDS011;19031;51.400;6.770;2023-02-03T06:09:01;1.92;;;1.13;;
32613;SDS011;19031;51.400;6.770;2023-02-03T06:11:32;3.65;;;1.65;;
32613;SDS011;19031;51.400;6.770;2023-02-03T06:13:59;5.07;;;1.23;;
32613;SDS011;19031;51.400;6.770;2023-02-03T06:16:26;7.53;;;1.73;;
32613;SDS011;19031;51.400;6.770;2023-02-03T06:18:52;1.92;;;0.90;;
32613;SDS011;19031;51.400;6.770;2023-02-03T06:21:22;4.60;;;1.30;;
32613;SDS011;19031;51.400;6.770;2023-02-03T06:23:47;5.53;;;1.65;;
32613;SDS011;19031;51.400;6.770;2023-02-03T06:26:13;4.90;;;1.40;;
32613;SDS011;19031;51.400;6.770;2023-02-03T06:28:39;3.75;;;1.48;;
32613;SDS011;19031;51.400;6.770;2023-02-03T06:31:04;3.45;;;1.23;;
32613;SDS011;19031;51.400;6.770;2023-02-03T06:33:30;4.60;;;1.50;;
32613;SDS011;19031;51.400;6.770;2023-02-03T06:35:56;6.97;;;1.73;;
32613;SDS011;19031;51.400;6.770;2023-02-03T06:38:22;13.10;;;1.45;;
32613;SDS011;19031;51.400;6.770;2023-02-03T06:40:48;2.45;;;0.85;;
32613;SDS011;19031;51.400;6.770;2023-02-03T06:43:14;11.27;;;1.33;;
32613;SDS011;19031;51.400;6.770;2023-02-03T06:45:40;7.00;;;1.23;;
32613;SDS011;19031;51.400;6.770;2023-02-03T06:48:08;1.95;;;1.13;;
32613;SDS011;19031;51.400;6.770;2023-02-03T06:50:34;4.28;;;1.58;;
32613;SDS011;19031;51.400;6.770;2023-02-03T06:52:59;2.80;;;1.00;;
32613;SDS011;19031;51.400;6.770;2023-02-03T06:55:25;11.63;;;1.33;;
32613;SDS011;19031;51.400;6.770;2023-02-03T06:57:50;5.30;;;1.30;;
32613;SDS011;19031;51.400;6.770;2023-02-03T07:00:16;4.72;;;1.75;;
32613;SDS011;19031;51.400;6.770;2023-02-03T07:02:43;3.50;;;1.25;;
32613;SDS011;19031;51.400;6.770;2023-02-03T07:05:08;1.70;;;1.05;;
32613;SDS011;19031;51.400;6.770;2023-02-03T07:07:35;2.25;;;1.20;;
32613;SDS011;19031;51.400;6.770;2023-02-03T07:10:01;3.05;;;1.00;;
32613;SDS011;19031;51.400;6.770;2023-02-03T07:12:27;2.58;;;1.63;;
32613;SDS011;19031;51.400;6.770;2023-02-03T07:14:53;2.50;;;1.20;;
32613;SDS011;19031;51.400;6.770;2023-02-03T07:17:18;3.08;;;1.08;;
32613;SDS011;19031;51.400;6.770;2023-02-03T07:19:44;12.30;;;1.73;;
32613;SDS011;19031;51.400;6.770;2023-02-03T07:22:10;2.90;;;1.92;;
32613;SDS011;19031;51.400;6.770;2023-02-03T07:24:36;4.38;;;1.05;;
32613;SDS011;19031;51.400;6.770;2023-02-03T07:27:02;7.75;;;2.00;;
32613;SDS011;19031;51.400;6.770;2023-02-03T07:29:28;10.05;;;1.30;;
32613;SDS011;19031;51.400;6.770;2023-02-03T07:31:54;5.78;;;1.23;;
32613;SDS011;19031;51.400;6.770;2023-02-03T07:34:19;3.85;;;1.10;;
32613;SDS011;19031;51.400;6.770;2023-02-03T07:36:45;2.00;;;1.00;;
32613;SDS011;19031;51.400;6.770;2023-02-03T07:39:10;3.17;;;1.25;;
32613;SDS011;19031;51.400;6.770;2023-02-03T07:41:36;3.10;;;1.52;;
32613;SDS011;19031;51.400;6.770;2023-02-03T07:44:01;6.72;;;1.20;;
32613;SDS011;19031;51.400;6.770;2023-02-03T07:46:27;1.85;;;0.77;;
32613;SDS011;19031;51.400;6.770;2023-02-03T07:48:53;3.63;;;1.00;;
32613;SDS011;19031;51.400;6.770;2023-02-03T07:51:18;10.10;;;1.33;;
32613;SDS011;19031;51.400;6.770;2023-02-03T07:53:44;8.32;;;2.10;;
32613;SDS011;19031;51.400;6.770;2023-02-03T07:56:10;1.27;;;0.65;;
32613;SDS011;19031;51.400;6.770;2023-02-03T07:58:36;4.18;;;1.10;;
32613;SDS011;19031;51.400;6.770;2023-02-03T08:01:08;4.80;;;0.95;;
32613;SDS011;19031;51.400;6.770;2023-02-03T08:03:35;2.75;;;1.20;;
32613;SDS011;19031;51.400;6.770;2023-02-03T08:06:00;7.75;;;1.25;;
32613;SDS011;19031;51.400;6.770;2023-02-03T08:08:26;4.25;;;1.48;;
32613;SDS011;19031;51.400;6.770;2023-02-03T08:10:53;2.70;;;1.05;;
32613;SDS011;19031;51.400;6.770;2023-02-03T08:13:20;8.73;;;1.42;;
32613;SDS011;19031;51.400;6.770;2023-02-03T08:15:46;3.28;;;1.08;;
32613;SDS011;19031;51.400;6.770;2023-02-03T08:18:12;5.90;;;1.08;;
32613;SDS011;19031;51.400;6.770;2023-02-03T08:20:37;1.20;;;0.82;;
32613;SDS011;19031;51.400;6.770;2023-02-03T08:23:03;1.48;;;0.80;;
32613;SDS011;19031;51.400;6.770;2023-02-03T08:25:29;5.03;;;1.20;;
32613;SDS011;19031;51.400;6.770;2023-02-03T08:27:54;2.17;;;1.38;;
32613;SDS011;19031;51.400;6.770;2023-02-03T08:30:20;12.88;;;1.73;;
32613;SDS011;19031;51.400;6.770;2023-02-03T08:32:46;2.10;;;1.33;;
32613;SDS011;19031;51.400;6.770;2023-02-03T08:35:11;5.00;;;1.02;;
32613;SDS011;19031;51.400;6.770;2023-02-03T08:37:37;4.53;;;1.75;;
32613;SDS011;19031;51.400;6.770;2023-02-03T08:40:03;4.38;;;1.42;;
32613;SDS011;19031;51.400;6.770;2023-02-03T08:42:30;8.40;;;1.60;;
32613;SDS011;19031;51.400;6.770;2023-02-03T08:44:56;10.35;;;1.73;;
32613;SDS011;19031;51.400;6.770;2023-02-03T08:47:21;7.32;;;1.67;;
32613;SDS011;19031;51.400;6.770;2023-02-03T08:49:47;3.90;;;1.20;;
32613;SDS011;19031;51.400;6.770;2023-02-03T08:52:13;3.78;;;1.20;;
32613;SDS011;19031;51.400;6.770;2023-02-03T08:54:39;4.70;;;1.45;;
32613;SDS011;19031;51.400;6.770;2023-02-03T08:57:05;2.47;;;1.00;;
32613;SDS011;19031;51.400;6.770;2023-02-03T08:59:31;3.35;;;1.33;;
32613;SDS011;19031;51.400;6.770;2023-02-03T09:02:00;12.95;;;2.08;;
32613;SDS011;19031;51.400;6.770;2023-02-03T09:04:26;6.47;;;1.38;;
32613;SDS011;19031;51.400;6.770;2023-02-03T09:06:52;2.83;;;1.55;;
32613;SDS011;19031;51.400;6.770;2023-02-03T09:09:18;8.90;;;1.42;;
32613;SDS011;19031;51.400;6.770;2023-02-03T09:11:44;9.75;;;2.28;;
32613;SDS011;19031;51.400;6.770;2023-02-03T09:14:10;4.43;;;1.48;;
32613;SDS011;19031;51.400;6.770;2023-02-03T09:16:36;4.50;;;1.70;;
32613;SDS011;19031;51.400;6.770;2023-02-03T09:19:02;2.53;;;1.20;;
32613;SDS011;19031;51.400;6.770;2023-02-03T09:21:27;4.70;;;1.80;;
32613;SDS011;19031;51.400;6.770;2023-02-03T09:23:53;6.00;;;1.58;;
32613;SDS011;19031;51.400;6.770;2023-02-03T09:26:18;2.70;;;1.42;;
32613;SDS011;19031;51.400;6.770;2023-02-03T09:28:44;2.53;;;1.23;;
32613;SDS011;19031;51.400;6.770;2023-02-03T09:31:13;3.10;;;1.17;;
32613;SDS011;19031;51.400;6.770;2023-02-03T09:33:41;4.32;;;1.63;;
32613;SDS011;19031;51.400;6.770;2023-02-03T09:36:08;2.42;;;1.30;;
32613;SDS011;19031;51.400;6.770;2023-02-03T09:38:34;4.60;;;1.20;;
32613;SDS011;19031;51.400;6.770;2023-02-03T09:43:35;5.75;;;1.80;;
32613;SDS011;19031;51.400;6.770;2023-02-03T09:46:16;7.80;;;1.80;;
32613;SDS011;19031;51.400;6.770;2023-02-03T09:48:46;4.43;;;1.33;;
32613;SDS011;19031;51.400;6.770;2023-02-03T09:51:16;3.00;;;1.50;;
32613;SDS011;19031;51.400;6.770;2023-02-03T09:54:04;4.18;;;1.88;;
32613;SDS011;19031;51.400;6.770;2023-02-03T09:56:40;2.80;;;1.63;;
32613;SDS011;19031;51.400;6.770;2023-02-03T09:59:13;3.17;;;1.75;;
32613;SDS011;19031;51.400;6.770;2023-02-03T10:01:42;7.60;;;2.13;;
32613;SDS011;19031;51.400;6.770;2023-02-03T10:04:36;8.75;;;1.90;;
32613;SDS011;19031;51.400;6.770;2023-02-03T10:07:21;2.65;;;1.45;;
32613;SDS011;19031;51.400;6.770;2023-02-03T10:18:21;9.05;;;2.17;;
32613;SDS011;19031;51.400;6.770;2023-02-03T10:20:52;2.97;;;1.60;;
32613;SDS011;19031;51.400;6.770;2023-02-03T10:23:32;6.38;;;1.88;;
32613;SDS011;19031;51.400;6.770;2023-02-03T10:26:01;5.10;;;1.58;;
32613;SDS011;19031;51.400;6.770;2023-02-03T10:28:35;12.52;;;2.22;;
32613;SDS011;19031;51.400;6.770;2023-02-03T10:31:05;8.05;;;1.48;;
32613;SDS011;19031;51.400;6.770;2023-02-03T10:33:42;2.58;;;1.48;;
32613;SDS011;19031;51.400;6.770;2023-02-03T10:36:18;5.18;;;1.55;;
32613;SDS011;19031;51.400;6.770;2023-02-03T10:38:51;6.70;;;1.75;;
32613;SDS011;19031;51.400;6.770;2023-02-03T10:41:25;2.33;;;1.40;;
32613;SDS011;19031;51.400;6.770;2023-02-03T10:43:53;3.92;;;1.42;;
32613;SDS011;19031;51.400;6.770;2023-02-03T10:46:20;3.28;;;1.65;;
32613;SDS011;19031;51.400;6.770;2023-02-03T10:48:52;5.78;;;1.55;;
32613;SDS011;19031;51.400;6.770;2023-02-03T10:51:20;5.07;;;1.70;;
32613;SDS011;19031;51.400;6.770;2023-02-03T10:53:47;5.70;;;1.08;;
32613;SDS011;19031;51.400;6.770;2023-02-03T10:56:16;8.80;;;1.90;;
32613;SDS011;19031;51.400;6.770;2023-02-03T10:58:48;2.63;;;1.00;;
32613;SDS011;19031;51.400;6.770;2023-02-03T11:01:15;11.25;;;1.63;;
32613;SDS011;19031;51.400;6.770;2023-02-03T11:03:44;4.93;;;2.03;;
32613;SDS011;19031;51.400;6.770;2023-02-03T11:06:18;8.23;;;1.60;;
32613;SDS011;19031;51.400;6.770;2023-02-03T11:08:44;4.03;;;1.30;;
32613;SDS011;19031;51.400;6.770;2023-02-03T11:11:30;3.78;;;1.63;;
32613;SDS011;19031;51.400;6.770;2023-02-03T11:16:26;4.50;;;1.48;;
32613;SDS011;19031;51.400;6.770;2023-02-03T11:18:56;3.30;;;1.30;;
32613;SDS011;19031;51.400;6.770;2023-02-03T11:24:02;5.25;;;1.85;;
32613;SDS011;19031;51.400;6.770;2023-02-03T11:26:48;7.65;;;2.03;;
32613;SDS011;19031;51.400;6.770;2023-02-03T11:29:21;7.82;;;1.23;;
32613;SDS011;19031;51.400;6.770;2023-02-03T11:31:50;5.90;;;1.27;;
32613;SDS011;19031;51.400;6.770;2023-02-03T11:34:21;2.97;;;1.17;;
32613;SDS011;19031;51.400;6.770;2023-02-03T11:36:51;3.38;;;1.60;;
32613;SDS011;19031;51.400;6.770;2023-02-03T11:39:23;6.22;;;1.48;;
32613;SDS011;19031;51.400;6.770;2023-02-03T11:41:49;1.85;;;1.30;;
32613;SDS011;19031;51.400;6.770;2023-02-03T11:44:36;3.08;;;1.65;;
32613;SDS011;19031;51.400;6.770;2023-02-03T11:47:02;4.68;;;1.50;;
32613;SDS011;19031;51.400;6.770;2023-02-03T11:49:54;8.18;;;1.73;;
32613;SDS011;19031;51.400;6.770;2023-02-03T12:08:50;7.15;;;1.70;;
32613;SDS011;19031;51.400;6.770;2023-02-03T12:17:12;10.30;;;2.40;;
32613;SDS011;19031;51.400;6.770;2023-02-03T12:25:06;4.97;;;1.60;;
32613;SDS011;19031;51.400;6.770;2023-02-03T12:33:03;11.40;;;2.05;;
32613;SDS011;19031;51.400;6.770;2023-02-03T12:35:40;5.50;;;1.48;;
32613;SDS011;19031;51.400;6.770;2023-02-03T12:38:16;5.78;;;1.90;;
32613;SDS011;19031;51.400;6.770;2023-02-03T12:40:47;7.82;;;1.88;;
32613;SDS011;19031;51.400;6.770;2023-02-03T12:43:25;10.07;;;2.33;;
32613;SDS011;19031;51.400;6.770;2023-02-03T12:46:23;4.13;;;1.58;;
32613;SDS011;19031;51.400;6.770;2023-02-03T12:51:40;7.30;;;2.03;;
32613;SDS011;19031;51.400;6.770;2023-02-03T12:59:40;9.88;;;1.92;;
32613;SDS011;19031;51.400;6.770;2023-02-03T13:02:17;4.60;;;2.10;;
32613;SDS011;19031;51.400;6.770;2023-02-03T13:04:50;8.15;;;2.55;;
32613;SDS011;19031;51.400;6.770;2023-02-03T13:07:25;5.65;;;2.20;;
32613;SDS011;19031;51.400;6.770;2023-02-03T13:10:15;5.43;;;2.10;;
32613;SDS011;19031;51.400;6.770;2023-02-03T13:12:49;8.55;;;2.00;;
32613;SDS011;19031;51.400;6.770;2023-02-03T13:20:50;12.07;;;1.60;;
32613;SDS011;19031;51.400;6.770;2023-02-03T13:23:17;2.80;;;1.60;;
32613;SDS011;19031;51.400;6.770;2023-02-03T13:36:55;4.18;;;2.10;;
32613;SDS011;19031;51.400;6.770;2023-02-03T13:42:27;5.43;;;1.45;;
32613;SDS011;19031;51.400;6.770;2023-02-03T13:44:56;5.30;;;1.23;;
32613;SDS011;19031;51.400;6.770;2023-02-03T13:47:44;3.30;;;1.10;;
32613;SDS011;19031;51.400;6.770;2023-02-03T13:53:04;5.85;;;1.55;;
32613;SDS011;19031;51.400;6.770;2023-02-03T13:55:39;5.25;;;1.98;;
32613;SDS011;19031;51.400;6.770;2023-02-03T13:58:23;4.35;;;1.52;;
32613;SDS011;19031;51.400;6.770;2023-02-03T14:01:01;5.13;;;1.58;;
32613;SDS011;19031;51.400;6.770;2023-02-03T14:03:51;6.72;;;1.73;;
32613;SDS011;19031;51.400;6.770;2023-02-03T14:14:40;7.38;;;1.23;;
32613;SDS011;19031;51.400;6.770;2023-02-03T14:17:07;3.40;;;1.55;;
32613;SDS011;19031;51.400;6.770;2023-02-03T14:23:13;8.43;;;1.75;;
32613;SDS011;19031;51.400;6.770;2023-02-03T14:26:02;3.85;;;1.60;;
32613;SDS011;19031;51.400;6.770;2023-02-03T14:28:35;3.45;;;1.30;;
32613;SDS011;19031;51.400;6.770;2023-02-03T14:31:07;6.93;;;1.25;;
32613;SDS011;19031;51.400;6.770;2023-02-03T14:36:41;10.73;;;1.33;;
32613;SDS011;19031;51.400;6.770;2023-02-03T14:58:22;6.05;;;1.20;;
32613;SDS011;19031;51.400;6.770;2023-02-03T15:00:53;4.85;;;1.00;;
32613;SDS011;19031;51.400;6.770;2023-02-03T15:03:20;4.40;;;1.38;;
32613;SDS011;19031;51.400;6.770;2023-02-03T15:05:59;8.80;;;1.90;;
32613;SDS011;19031;51.400;6.770;2023-02-03T15:08:34;9.60;;;1.88;;
32613;SDS011;19031;51.400;6.770;2023-02-03T15:11:14;9.73;;;1.30;;
32613;SDS011;19031;51.400;6.770;2023-02-03T15:13:46;8.10;;;1.33;;
32613;SDS011;19031;51.400;6.770;2023-02-03T15:16:12;5.50;;;1.75;;
32613;SDS011;19031;51.400;6.770;2023-02-03T15:18:42;1.83;;;1.00;;
32613;SDS011;19031;51.400;6.770;2023-02-03T15:21:15;4.72;;;1.52;;
32613;SDS011;19031;51.400;6.770;2023-02-03T15:23:43;7.85;;;1.42;;
32613;SDS011;19031;51.400;6.770;2023-02-03T15:26:22;5.78;;;1.63;;
32613;SDS011;19031;51.400;6.770;2023-02-03T15:28:53;7.88;;;1.95;;
32613;SDS011;19031;51.400;6.770;2023-02-03T15:33:49;6.68;;;2.17;;
32613;SDS011;19031;51.400;6.770;2023-02-03T15:36:20;3.35;;;1.48;;
32613;SDS011;19031;51.400;6.770;2023-02-03T15:38:52;5.93;;;1.42;;
32613;SDS011;19031;51.400;6.770;2023-02-03T15:41:30;5.75;;;2.20;;
32613;SDS011;19031;51.400;6.770;2023-02-03T15:44:05;16.38;;;2.03;;
32613;SDS011;19031;51.400;6.770;2023-02-03T15:46:39;11.52;;;2.67;;
32613;SDS011;19031;51.400;6.770;2023-02-03T15:49:16;6.20;;;1.60;;
32613;SDS011;19031;51.400;6.770;2023-02-03T15:51:50;4.30;;;1.30;;
32613;SDS011;19031;51.400;6.770;2023-02-03T15:54:26;6.25;;;1.92;;
32613;SDS011;19031;51.400;6.770;2023-02-03T15:57:01;10.95;;;1.88;;
32613;SDS011;19031;51.400;6.770;2023-02-03T16:01:59;11.77;;;1.90;;
32613;SDS011;19031;51.400;6.770;2023-02-03T16:04:30;12.07;;;2.63;;
32613;SDS011;19031;51.400;6.770;2023-02-03T16:06:56;11.30;;;1.67;;
32613;SDS011;19031;51.400;6.770;2023-02-03T16:12:21;6.97;;;1.80;;
32613;SDS011;19031;51.400;6.770;2023-02-03T16:14:50;9.20;;;2.10;;
32613;SDS011;19031;51.400;6.770;2023-02-03T16:17:33;6.78;;;1.90;;
32613;SDS011;19031;51.400;6.770;2023-02-03T16:22:37;6.07;;;1.80;;
32613;SDS011;19031;51.400;6.770;2023-02-03T16:27:42;12.05;;;2.28;;
32613;SDS011;19031;51.400;6.770;2023-02-03T16:35:57;10.73;;;2.20;;
32613;SDS011;19031;51.400;6.770;2023-02-03T16:38:48;8.13;;;1.83;;
32613;SDS011;19031;51.400;6.770;2023-02-03T16:41:33;18.92;;;2.63;;
32613;SDS011;19031;51.400;6.770;2023-02-03T16:44:19;15.93;;;2.72;;
32613;SDS011;19031;51.400;6.770;2023-02-03T16:47:04;5.68;;;1.83;;
32613;SDS011;19031;51.400;6.770;2023-02-03T16:50:10;10.20;;;2.25;;
32613;SDS011;19031;51.400;6.770;2023-02-03T16:52:57;11.25;;;2.35;;
32613;SDS011;19031;51.400;6.770;2023-02-03T16:55:22;10.80;;;2.38;;
32613;SDS011;19031;51.400;6.770;2023-02-03T16:57:48;10.90;;;2.03;;
32613;SDS011;19031;51.400;6.770;2023-02-03T17:00:15;9.85;;;1.60;;
32613;SDS011;19031;51.400;6.770;2023-02-03T17:02:42;8.63;;;2.17;;
32613;SDS011;19031;51.400;6.770;2023-02-03T17:05:07;6.50;;;1.77;;
32613;SDS011;19031;51.400;6.770;2023-02-03T17:07:33;12.98;;;1.50;;
32613;SDS011;19031;51.400;6.770;2023-02-03T17:09:58;6.22;;;1.38;;
32613;SDS011;19031;51.400;6.770;2023-02-03T17:12:24;5.45;;;1.30;;
32613;SDS011;19031;51.400;6.770;2023-02-03T17:14:54;7.00;;;1.50;;
32613;SDS011;19031;51.400;6.770;2023-02-03T17:17:21;13.02;;;2.35;;
32613;SDS011;19031;51.400;6.770;2023-02-03T17:19:47;12.43;;;2.67;;
32613;SDS011;19031;51.400;6.770;2023-02-03T17:22:12;13.60;;;2.47;;
32613;SDS011;19031;51.400;6.770;2023-02-03T17:24:38;13.30;;;2.13;;
32613;SDS011;19031;51.400;6.770;2023-02-03T17:27:03;12.10;;;3.00;;
32613;SDS011;19031;51.400;6.770;2023-02-03T17:29:29;19.90;;;5.55;;
32613;SDS011;19031;51.400;6.770;2023-02-03T17:31:54;15.35;;;2.83;;
32613;SDS011;19031;51.400;6.770;2023-02-03T17:34:20;11.23;;;2.10;;
32613;SDS011;19031;51.400;6.770;2023-02-03T17:36:46;14.00;;;2.80;;
32613;SDS011;19031;51.400;6.770;2023-02-03T17:39:11;10.93;;;2.25;;
32613;SDS011;19031;51.400;6.770;2023-02-03T17:41:37;10.90;;;2.05;;
32613;SDS011;19031;51.400;6.770;2023-02-03T17:44:02;8.13;;;1.58;;